Terminal Aerodrome Forecast
Issued by NWS

Home | Current Version | Previous Version | Text Only | Print | Product List | Glossary On
Versions: 1 2 3 4 5 6 7 8 9 10 11 12
000
FTUS44 KLZK 061100
TAFLIT
TAF
KLIT 061125Z 0612/0712 16004KT P6SM BKN080 BKN250
     FM061600 16010G16KT P6SM SCT050 BKN150
     FM070100 14006KT P6SM BKN050=

USA.gov is the U.S. government's official web portal to all federal, state and local government web resources and services.